Time;durP1;ratioP1;P1;durP2;ratioP2;P2;SDS_P1;SDS_P2;PMS_P1;PMS_P2;Temp;Humidity;BMP_temperature;BMP_pressure;BME280_temperature;BME280_humidity;BME280_pressure;Samples;Min_cycle;Max_cycle;Signal;HPM_P1;HPM_P2
2023/05/09 00:01:21;;;;;;;5.20;2.72;;;11.60;70.60;;;;;;4977508;28;20449;-65
2023/05/09 00:03:47;;;;;;;5.35;3.17;;;11.50;70.90;;;;;;4972641;28;20042;-65
2023/05/09 00:06:14;;;;;;;4.65;2.88;;;11.50;70.80;;;;;;4972884;28;20048;-65
2023/05/09 00:08:40;;;;;;;6.85;2.63;;;11.50;71.10;;;;;;4966435;28;20031;-65
2023/05/09 00:11:06;;;;;;;6.95;2.88;;;11.50;71.20;;;;;;4977156;28;20034;-65
2023/05/09 00:13:33;;;;;;;4.25;2.50;;;11.40;71.00;;;;;;4973914;28;20031;-66
2023/05/09 00:15:59;;;;;;;4.72;2.92;;;11.50;71.30;;;;;;4974235;28;20038;-66
2023/05/09 00:18:27;;;;;;;3.83;2.78;;;11.50;72.00;;;;;;4974771;28;20031;-66
2023/05/09 00:20:53;;;;;;;4.28;3.20;;;11.50;71.80;;;;;;4976547;28;20053;-65
2023/05/09 00:23:19;;;;;;;4.82;2.65;;;11.50;71.40;;;;;;4973769;28;20043;-65
2023/05/09 00:25:44;;;;;;;4.65;2.75;;;11.40;71.30;;;;;;4975480;28;20038;-65
2023/05/09 00:28:10;;;;;;;3.75;2.53;;;11.40;71.80;;;;;;4968766;28;20154;-66
2023/05/09 00:30:36;;;;;;;3.78;2.63;;;11.40;71.70;;;;;;4974286;28;20034;-66
2023/05/09 00:33:02;;;;;;;3.65;2.80;;;11.30;71.30;;;;;;4987377;28;20549;-65
2023/05/09 00:35:28;;;;;;;4.28;2.60;;;11.30;71.90;;;;;;4972549;28;20035;-66
2023/05/09 00:37:54;;;;;;;4.18;2.65;;;11.20;72.20;;;;;;4972187;28;20461;-65
2023/05/09 00:40:20;;;;;;;5.20;3.22;;;11.20;72.40;;;;;;4975175;28;20053;-65
2023/05/09 00:42:45;;;;;;;5.60;3.05;;;11.20;73.00;;;;;;4971818;28;20269;-65
2023/05/09 00:45:11;;;;;;;4.93;3.20;;;11.10;72.80;;;;;;4970971;28;20022;-65
2023/05/09 00:47:37;;;;;;;3.80;2.85;;;11.00;73.00;;;;;;4971602;28;20040;-65
2023/05/09 00:50:04;;;;;;;3.92;2.80;;;11.00;73.40;;;;;;4972501;28;20089;-65
2023/05/09 00:52:32;;;;;;;3.50;2.65;;;11.10;73.60;;;;;;4978929;28;20068;-65
2023/05/09 00:54:59;;;;;;;3.95;2.67;;;11.00;73.50;;;;;;4972248;28;20035;-65
2023/05/09 00:57:25;;;;;;;4.63;2.40;;;11.00;73.40;;;;;;4975490;28;20026;-65
2023/05/09 00:59:51;;;;;;;5.63;2.83;;;11.00;73.50;;;;;;4973340;28;20072;-65
2023/05/09 01:02:17;;;;;;;5.85;3.03;;;11.00;74.10;;;;;;4971567;28;20149;-65
2023/05/09 01:04:44;;;;;;;5.40;2.92;;;11.00;73.90;;;;;;4968182;28;20042;-65
2023/05/09 01:07:15;;;;;;;5.10;2.70;;;11.00;74.20;;;;;;4972550;28;20041;-66
2023/05/09 01:10:06;;;;;;;6.18;3.03;;;10.90;74.00;;;;;;4971957;28;20108;-65
2023/05/09 01:12:55;;;;;;;5.32;2.60;;;10.90;74.00;;;;;;4968740;28;20041;-65
2023/05/09 01:15:41;;;;;;;7.25;2.67;;;10.90;74.00;;;;;;4966666;28;20082;-65
2023/05/09 01:18:33;;;;;;;7.18;3.15;;;10.90;74.50;;;;;;4970948;28;20042;-65
2023/05/09 01:21:07;;;;;;;7.55;3.17;;;10.90;74.50;;;;;;4951849;28;20046;-65
2023/05/09 01:23:43;;;;;;;5.55;2.90;;;10.90;74.60;;;;;;4971294;28;20113;-65
2023/05/09 01:26:40;;;;;;;7.67;2.87;;;10.90;74.90;;;;;;4953224;28;20035;-65
2023/05/09 01:29:25;;;;;;;5.78;2.53;;;10.90;74.30;;;;;;4971705;28;20045;-65
2023/05/09 01:31:54;;;;;;;4.85;2.80;;;10.80;74.30;;;;;;4970427;28;20125;-65
2023/05/09 01:34:21;;;;;;;5.05;2.72;;;10.80;74.30;;;;;;4976396;28;20106;-65
2023/05/09 01:36:50;;;;;;;2.70;1.98;;;10.80;74.70;;;;;;4968701;28;20031;-66
2023/05/09 01:39:18;;;;;;;8.13;3.10;;;10.80;74.10;;;;;;4969551;28;20031;-65
2023/05/09 01:41:45;;;;;;;5.95;3.10;;;10.80;73.90;;;;;;4953277;28;20042;-66
2023/05/09 01:44:12;;;;;;;8.57;2.55;;;10.80;74.10;;;;;;4970454;28;20116;-65
2023/05/09 01:46:39;;;;;;;3.83;2.78;;;10.80;74.00;;;;;;4974686;28;20041;-66
2023/05/09 01:49:08;;;;;;;4.72;2.67;;;10.80;73.30;;;;;;4970638;28;20034;-66
2023/05/09 01:51:36;;;;;;;3.97;2.78;;;10.80;73.60;;;;;;4966488;28;20101;-66
2023/05/09 01:54:04;;;;;;;3.10;2.38;;;10.80;73.50;;;;;;4974627;28;20046;-66
2023/05/09 01:56:31;;;;;;;4.90;2.30;;;10.80;73.60;;;;;;4974807;28;20035;-65
2023/05/09 01:58:59;;;;;;;3.00;2.45;;;10.80;73.30;;;;;;4972349;28;20092;-65
2023/05/09 02:01:26;;;;;;;3.30;2.20;;;10.80;72.70;;;;;;4970957;28;20836;-66
2023/05/09 02:03:53;;;;;;;3.50;2.80;;;10.80;73.10;;;;;;4972326;28;20096;-66
2023/05/09 02:06:22;;;;;;;4.13;2.40;;;10.80;73.20;;;;;;4973204;28;20042;-65
2023/05/09 02:08:49;;;;;;;4.28;2.10;;;10.80;73.00;;;;;;4967847;28;20030;-66
2023/05/09 02:11:15;;;;;;;5.57;2.28;;;10.80;72.80;;;;;;4968739;28;20045;-65
2023/05/09 02:13:41;;;;;;;3.10;2.22;;;10.70;72.30;;;;;;4967199;28;20042;-65
2023/05/09 02:16:08;;;;;;;4.72;2.45;;;10.70;73.10;;;;;;4966848;28;20149;-65
2023/05/09 02:18:36;;;;;;;3.00;2.03;;;10.70;72.50;;;;;;4968590;28;20035;-64
2023/05/09 02:21:02;;;;;;;4.72;2.10;;;10.70;72.10;;;;;;4967267;28;20035;-65
2023/05/09 02:23:29;;;;;;;4.40;2.97;;;10.80;72.80;;;;;;4969234;28;20034;-65
2023/05/09 02:25:55;;;;;;;4.82;2.47;;;10.70;73.20;;;;;;4965765;28;20049;-65
2023/05/09 02:28:27;;;;;;;4.70;2.78;;;10.70;73.70;;;;;;4953553;28;20030;-66
2023/05/09 02:30:55;;;;;;;2.85;2.17;;;10.70;72.70;;;;;;4962830;28;20141;-65
2023/05/09 02:33:22;;;;;;;5.30;2.72;;;10.70;72.90;;;;;;4961439;28;20031;-65
2023/05/09 02:35:49;;;;;;;3.67;2.30;;;10.60;72.30;;;;;;4966128;28;20813;-65
2023/05/09 02:38:14;;;;;;;6.20;2.30;;;10.50;72.60;;;;;;4967523;28;20669;-65
2023/05/09 02:40:43;;;;;;;3.28;2.50;;;10.50;73.30;;;;;;4965894;28;20030;-65
2023/05/09 02:43:09;;;;;;;4.38;2.42;;;10.60;73.50;;;;;;4961313;28;20115;-65
2023/05/09 02:45:35;;;;;;;3.72;2.40;;;10.50;73.20;;;;;;4966526;28;20422;-66
2023/05/09 02:48:01;;;;;;;5.68;2.40;;;10.50;73.70;;;;;;4966868;28;20269;-65
2023/05/09 02:50:27;;;;;;;4.32;2.25;;;10.50;73.90;;;;;;4944667;28;20027;-65
2023/05/09 02:52:53;;;;;;;5.07;2.65;;;10.50;73.20;;;;;;4955703;28;20112;-65
2023/05/09 02:55:19;;;;;;;8.02;2.47;;;10.50;72.90;;;;;;4960872;28;20131;-65
2023/05/09 02:57:45;;;;;;;4.82;2.50;;;10.50;72.80;;;;;;4964639;28;20049;-65
2023/05/09 03:00:11;;;;;;;2.58;2.13;;;10.40;73.80;;;;;;4965188;28;20574;-65
2023/05/09 03:02:38;;;;;;;3.45;2.08;;;10.40;74.00;;;;;;4964791;28;20038;-65
2023/05/09 03:05:07;;;;;;;4.00;2.40;;;10.40;73.90;;;;;;4960936;28;20861;-65
2023/05/09 03:07:34;;;;;;;3.78;2.30;;;10.40;73.50;;;;;;4964815;28;20051;-66
2023/05/09 03:10:01;;;;;;;3.45;2.50;;;10.30;73.60;;;;;;4961640;28;20081;-65
2023/05/09 03:12:28;;;;;;;3.45;2.10;;;10.30;73.60;;;;;;4969869;28;20031;-65
2023/05/09 03:14:55;;;;;;;3.92;2.35;;;10.30;73.00;;;;;;4963094;28;20118;-65
2023/05/09 03:17:22;;;;;;;3.80;2.50;;;10.20;73.40;;;;;;4963392;28;20026;-66
2023/05/09 03:19:48;;;;;;;4.75;2.03;;;10.20;72.90;;;;;;4967431;28;20350;-65
2023/05/09 03:22:14;;;;;;;9.70;2.38;;;10.20;72.70;;;;;;4960914;28;20833;-65
2023/05/09 03:24:49;;;;;;;4.70;2.42;;;10.20;73.50;;;;;;4963791;28;20031;-65
2023/05/09 03:27:15;;;;;;;3.65;2.35;;;10.10;73.00;;;;;;4963746;28;20035;-65
2023/05/09 03:29:40;;;;;;;4.70;2.00;;;10.10;73.20;;;;;;4958817;28;20023;-65
2023/05/09 03:32:07;;;;;;;3.97;2.22;;;10.10;73.70;;;;;;4967418;28;20039;-65
2023/05/09 03:34:32;;;;;;;4.35;2.10;;;10.10;74.00;;;;;;4964473;28;20045;-65
2023/05/09 03:36:59;;;;;;;3.17;2.17;;;10.10;73.70;;;;;;4966055;28;20081;-65
2023/05/09 03:39:27;;;;;;;6.90;2.35;;;10.10;73.90;;;;;;4966431;28;20035;-65
2023/05/09 03:41:55;;;;;;;3.40;2.20;;;10.10;74.50;;;;;;4962975;28;20027;-65
2023/05/09 03:44:21;;;;;;;3.22;2.20;;;10.10;73.80;;;;;;4968341;28;20065;-65
2023/05/09 03:46:47;;;;;;;3.63;2.22;;;10.10;74.20;;;;;;4965513;28;20133;-65
2023/05/09 03:49:14;;;;;;;6.68;2.03;;;10.00;73.80;;;;;;4962152;28;20026;-64
2023/05/09 03:51:40;;;;;;;4.95;2.25;;;10.00;74.70;;;;;;4963503;28;20049;-65
2023/05/09 03:54:09;;;;;;;6.20;2.70;;;10.00;74.10;;;;;;4963526;28;20031;-65
2023/05/09 03:56:35;;;;;;;3.78;2.08;;;10.00;74.30;;;;;;4962865;28;20031;-65
2023/05/09 03:59:01;;;;;;;3.85;2.15;;;10.10;74.20;;;;;;4962625;28;20045;-66
2023/05/09 04:01:28;;;;;;;5.13;2.10;;;10.10;74.70;;;;;;4963464;28;20398;-66
2023/05/09 04:04:01;;;;;;;3.33;2.15;;;10.00;74.00;;;;;;4964257;28;20582;-66
2023/05/09 04:06:29;;;;;;;2.95;1.90;;;10.00;73.50;;;;;;4965205;28;20022;-65
2023/05/09 04:08:56;;;;;;;2.65;2.20;;;10.00;74.00;;;;;;4963761;28;20027;-66
2023/05/09 04:11:23;;;;;;;5.75;2.40;;;10.00;74.10;;;;;;4963327;28;20027;-65
2023/05/09 04:13:49;;;;;;;4.40;2.00;;;10.00;74.10;;;;;;4964955;28;20034;-65
2023/05/09 04:16:25;;;;;;;6.40;2.30;;;10.00;73.60;;;;;;4973751;28;20987;-66
2023/05/09 04:18:52;;;;;;;4.43;2.30;;;10.00;73.40;;;;;;4967456;28;20471;-65
2023/05/09 04:21:18;;;;;;;2.63;2.05;;;10.00;74.30;;;;;;4964381;28;20130;-66
2023/05/09 04:23:47;;;;;;;8.90;2.28;;;10.00;74.30;;;;;;4969039;28;20041;-65
2023/05/09 04:26:16;;;;;;;5.68;2.97;;;10.00;74.20;;;;;;4968469;28;20041;-65
2023/05/09 04:28:44;;;;;;;3.42;2.53;;;10.00;74.40;;;;;;4962128;28;20056;-65
2023/05/09 04:31:13;;;;;;;3.58;1.90;;;10.00;74.00;;;;;;4962665;28;20554;-65
2023/05/09 04:33:40;;;;;;;4.07;2.28;;;10.00;74.50;;;;;;4964765;28;20033;-65
2023/05/09 04:36:06;;;;;;;5.05;2.15;;;10.00;74.00;;;;;;4971734;28;20035;-65
2023/05/09 04:38:33;;;;;;;4.93;2.15;;;10.00;73.90;;;;;;4967132;28;20054;-66
2023/05/09 04:41:00;;;;;;;4.28;2.53;;;10.00;73.60;;;;;;4971348;28;20034;-65
2023/05/09 04:43:26;;;;;;;9.02;2.35;;;9.90;73.70;;;;;;4971558;28;20426;-66
2023/05/09 04:45:53;;;;;;;3.83;2.15;;;9.90;75.60;;;;;;4961910;28;20109;-65
2023/05/09 04:48:19;;;;;;;4.15;2.67;;;9.90;74.70;;;;;;4969100;28;20035;-65
2023/05/09 04:50:47;;;;;;;3.50;1.77;;;10.00;75.00;;;;;;4969740;28;20026;-65
2023/05/09 04:53:13;;;;;;;4.28;2.10;;;10.00;74.20;;;;;;4971549;28;20038;-66
2023/05/09 04:55:40;;;;;;;5.28;2.28;;;10.10;74.40;;;;;;4967305;28;20117;-66
2023/05/09 04:58:08;;;;;;;5.00;1.80;;;10.20;74.60;;;;;;4966707;28;20050;-65
2023/05/09 05:00:34;;;;;;;4.72;2.42;;;10.30;74.00;;;;;;4970997;28;20514;-66
2023/05/09 05:03:01;;;;;;;6.88;2.47;;;10.30;73.50;;;;;;4960444;28;20062;-64
2023/05/09 05:05:28;;;;;;;3.78;2.13;;;10.30;73.30;;;;;;4970000;28;20029;-65
2023/05/09 05:07:54;;;;;;;4.88;2.05;;;10.40;73.80;;;;;;4966113;28;20034;-65
2023/05/09 05:10:24;;;;;;;6.32;2.20;;;10.40;73.10;;;;;;4967607;28;20090;-64
2023/05/09 05:12:58;;;;;;;4.60;2.20;;;10.60;72.90;;;;;;4967243;28;20034;-65
2023/05/09 05:15:25;;;;;;;7.05;2.20;;;10.70;72.10;;;;;;4968523;28;20105;-65
2023/05/09 05:17:52;;;;;;;3.45;2.00;;;10.90;71.60;;;;;;4964953;28;20653;-65
2023/05/09 05:20:21;;;;;;;5.80;2.47;;;11.10;70.60;;;;;;4961730;28;20042;-65
2023/05/09 05:22:48;;;;;;;3.80;2.05;;;11.40;70.30;;;;;;4963951;28;20039;-65
2023/05/09 05:25:15;;;;;;;3.53;2.10;;;11.70;69.90;;;;;;4965515;28;20037;-65
2023/05/09 05:27:43;;;;;;;4.80;2.50;;;12.00;69.10;;;;;;4961401;28;20034;-65
2023/05/09 05:30:14;;;;;;;3.45;2.22;;;12.20;68.30;;;;;;4961273;28;20035;-65
2023/05/09 05:32:41;;;;;;;7.10;2.70;;;12.60;67.20;;;;;;4960295;28;20035;-65
2023/05/09 05:35:08;;;;;;;3.97;2.28;;;12.90;67.00;;;;;;4962418;28;20043;-65
2023/05/09 05:37:37;;;;;;;3.83;2.38;;;13.30;64.50;;;;;;4964873;28;20542;-65
2023/05/09 05:40:04;;;;;;;3.05;2.10;;;13.70;64.00;;;;;;4964999;28;20079;-65
2023/05/09 05:42:31;;;;;;;4.30;2.03;;;14.30;62.10;;;;;;4967746;28;20702;-65
2023/05/09 05:45:03;;;;;;;5.72;2.40;;;14.60;60.80;;;;;;4963660;28;20037;-65
2023/05/09 05:47:35;;;;;;;5.35;2.38;;;14.70;60.10;;;;;;4970246;28;20031;-65
2023/05/09 05:50:02;;;;;;;3.35;2.38;;;14.70;59.70;;;;;;4959603;28;20030;-65
2023/05/09 05:52:29;;;;;;;3.35;1.90;;;14.60;59.90;;;;;;4961212;28;20031;-65
2023/05/09 05:54:56;;;;;;;3.15;2.10;;;14.40;61.70;;;;;;4967374;28;20445;-66
2023/05/09 05:57:22;;;;;;;4.13;2.33;;;14.30;61.10;;;;;;4964021;28;20030;-66
2023/05/09 05:59:49;;;;;;;7.70;2.28;;;14.60;60.60;;;;;;4967487;28;20747;-65
2023/05/09 06:02:16;;;;;;;3.45;2.38;;;14.80;59.90;;;;;;4965410;28;20094;-65
2023/05/09 06:04:43;;;;;;;5.35;2.38;;;15.00;59.40;;;;;;4977528;28;20038;-66
2023/05/09 06:07:11;;;;;;;5.75;2.20;;;15.10;58.90;;;;;;4966188;28;20034;-65
2023/05/09 06:09:37;;;;;;;3.47;1.98;;;15.10;58.90;;;;;;4962361;28;20046;-65
2023/05/09 06:12:03;;;;;;;5.35;2.40;;;15.40;58.50;;;;;;4967580;28;20396;-66
2023/05/09 06:14:29;;;;;;;5.57;2.00;;;16.00;57.30;;;;;;4970897;28;20507;-66
2023/05/09 06:16:55;;;;;;;4.70;3.10;;;16.40;55.40;;;;;;4964345;28;20149;-65
2023/05/09 06:19:21;;;;;;;2.22;1.83;;;16.20;56.00;;;;;;4965449;28;20031;-65
2023/05/09 06:21:46;;;;;;;7.75;2.08;;;15.80;56.40;;;;;;4963477;28;20097;-66
2023/05/09 06:24:12;;;;;;;4.18;2.20;;;15.60;56.70;;;;;;4965718;28;20050;-65
2023/05/09 06:26:38;;;;;;;4.72;2.13;;;15.20;56.90;;;;;;4964249;28;20030;-65
2023/05/09 06:29:07;;;;;;;5.20;2.00;;;14.90;58.30;;;;;;4964286;28;20025;-66
2023/05/09 06:31:37;;;;;;;2.88;2.10;;;14.80;58.30;;;;;;4967654;28;20037;-65
2023/05/09 06:34:06;;;;;;;4.65;2.38;;;14.80;58.90;;;;;;4958265;28;20051;-66
2023/05/09 06:36:32;;;;;;;3.78;1.92;;;14.80;58.20;;;;;;4966000;28;20069;-65
2023/05/09 06:38:58;;;;;;;4.65;2.50;;;14.80;58.20;;;;;;4960932;28;20039;-66
2023/05/09 06:41:24;;;;;;;4.05;2.13;;;15.20;57.40;;;;;;4968829;28;20046;-66
2023/05/09 06:43:51;;;;;;;5.43;2.13;;;15.40;56.40;;;;;;4957992;28;20143;-66
2023/05/09 06:46:17;;;;;;;3.42;2.17;;;15.30;56.10;;;;;;4963179;28;20563;-66
2023/05/09 06:48:43;;;;;;;3.33;2.08;;;15.10;57.00;;;;;;4959866;28;20027;-66
2023/05/09 06:51:10;;;;;;;3.85;1.95;;;15.10;58.60;;;;;;4959472;28;20796;-66
2023/05/09 06:53:36;;;;;;;3.65;1.80;;;15.10;58.00;;;;;;4962943;28;20116;-66
2023/05/09 06:56:02;;;;;;;6.85;2.00;;;14.80;56.80;;;;;;4967072;28;20039;-65
2023/05/09 06:58:28;;;;;;;4.07;2.08;;;14.40;58.20;;;;;;4966323;28;20042;-66
2023/05/09 07:00:54;;;;;;;3.25;1.98;;;14.40;58.40;;;;;;4969186;28;20027;-65
2023/05/09 07:03:20;;;;;;;1.92;1.60;;;14.30;58.70;;;;;;4967370;28;20042;-65
2023/05/09 07:05:46;;;;;;;3.25;1.80;;;14.10;59.60;;;;;;4968787;28;20031;-68
2023/05/09 07:08:12;;;;;;;6.63;1.77;;;14.20;58.80;;;;;;4963192;28;20038;-65
2023/05/09 07:10:38;;;;;;;4.05;2.00;;;14.30;58.10;;;;;;4970498;28;20089;-65
2023/05/09 07:13:04;;;;;;;5.63;2.38;;;14.50;57.30;;;;;;4966538;28;20038;-65
2023/05/09 07:15:30;;;;;;;3.83;2.03;;;14.50;58.70;;;;;;4963351;28;20034;-65
2023/05/09 07:17:56;;;;;;;4.40;2.08;;;14.60;57.80;;;;;;4970135;28;20502;-65
2023/05/09 07:20:21;;;;;;;4.18;2.47;;;14.70;57.20;;;;;;4969350;28;20549;-65
2023/05/09 07:22:47;;;;;;;4.82;2.22;;;14.80;56.80;;;;;;4966020;28;20035;-65
2023/05/09 07:25:13;;;;;;;3.35;2.33;;;14.80;57.20;;;;;;4963244;28;20076;-66
2023/05/09 07:27:39;;;;;;;3.50;2.10;;;14.90;58.00;;;;;;4962393;28;20026;-66
2023/05/09 07:30:06;;;;;;;3.03;2.08;;;14.90;57.20;;;;;;4966437;28;20035;-66
2023/05/09 07:32:32;;;;;;;5.78;2.20;;;14.90;57.40;;;;;;4962982;28;20481;-66
2023/05/09 07:34:58;;;;;;;3.55;1.77;;;15.00;57.90;;;;;;4961029;28;20027;-66
2023/05/09 07:37:23;;;;;;;4.45;1.90;;;15.20;58.40;;;;;;4965429;28;20031;-65
2023/05/09 07:39:50;;;;;;;3.20;1.85;;;15.20;57.10;;;;;;4967087;28;20035;-65
2023/05/09 07:42:15;;;;;;;2.70;1.80;;;15.40;57.50;;;;;;4963048;28;20944;-65
2023/05/09 07:44:41;;;;;;;6.18;2.45;;;15.50;58.70;;;;;;4965694;28;20038;-66
2023/05/09 07:47:07;;;;;;;3.20;1.85;;;15.40;56.20;;;;;;4962244;28;20035;-66
2023/05/09 07:49:34;;;;;;;4.07;2.35;;;15.30;56.10;;;;;;4968108;28;20031;-66
2023/05/09 07:52:00;;;;;;;3.03;2.10;;;15.40;57.40;;;;;;4967929;28;20035;-66
2023/05/09 07:54:26;;;;;;;4.00;1.90;;;15.50;56.60;;;;;;4963520;28;20120;-66
2023/05/09 07:56:52;;;;;;;4.13;2.20;;;15.60;57.00;;;;;;4970670;28;20395;-66
2023/05/09 07:59:18;;;;;;;2.88;2.00;;;15.90;56.40;;;;;;4968858;28;20506;-66
2023/05/09 08:01:44;;;;;;;2.15;1.63;;;15.80;57.60;;;;;;4966722;28;20582;-66
2023/05/09 08:04:10;;;;;;;4.70;2.28;;;15.80;55.40;;;;;;4966153;28;20042;-66
2023/05/09 08:06:35;;;;;;;2.30;1.73;;;15.80;56.30;;;;;;4973358;28;20031;-65
2023/05/09 08:09:01;;;;;;;4.20;1.95;;;15.80;55.50;;;;;;4972548;28;20026;-66
2023/05/09 08:11:27;;;;;;;5.20;2.33;;;15.70;55.20;;;;;;4968953;28;20026;-68
2023/05/09 08:13:53;;;;;;;4.55;2.05;;;15.70;55.50;;;;;;4964952;28;20569;-65
2023/05/09 08:16:19;;;;;;;3.30;2.05;;;15.80;57.00;;;;;;4968538;28;20035;-68
2023/05/09 08:18:45;;;;;;;6.20;2.28;;;16.00;56.00;;;;;;4969719;28;20050;-68
2023/05/09 08:21:11;;;;;;;4.20;2.40;;;16.10;55.20;;;;;;4967331;28;20045;-68
2023/05/09 08:23:37;;;;;;;3.58;1.95;;;16.00;54.60;;;;;;4965880;28;20074;-68
2023/05/09 08:26:02;;;;;;;4.95;3.00;;;16.10;54.80;;;;;;4971509;28;20782;-67
2023/05/09 08:28:28;;;;;;;5.47;2.35;;;16.00;54.90;;;;;;4972642;28;20066;-68
2023/05/09 08:30:57;;;;;;;3.78;1.75;;;15.90;54.50;;;;;;4948484;28;20041;-66
2023/05/09 08:33:23;;;;;;;7.40;2.20;;;15.90;55.40;;;;;;4966506;28;20097;-67
2023/05/09 08:35:52;;;;;;;3.63;2.13;;;16.00;55.10;;;;;;4967354;28;21049;-67
2023/05/09 08:38:19;;;;;;;3.65;2.08;;;16.10;55.80;;;;;;4970039;28;20065;-66
2023/05/09 08:40:44;;;;;;;3.80;2.03;;;16.10;54.00;;;;;;4965931;28;20054;-67
2023/05/09 08:43:11;;;;;;;2.28;1.90;;;16.30;53.90;;;;;;4965152;28;20498;-69
2023/05/09 08:45:48;;;;;;;5.35;2.38;;;16.40;54.50;;;;;;4963638;28;20498;-67
2023/05/09 08:48:15;;;;;;;3.45;2.03;;;16.60;54.10;;;;;;4965807;28;20487;-67
2023/05/09 08:50:42;;;;;;;3.85;2.10;;;16.70;52.50;;;;;;4963704;28;20472;-67
2023/05/09 08:53:08;;;;;;;4.05;2.53;;;16.80;53.30;;;;;;4968903;28;20046;-67
2023/05/09 08:55:34;;;;;;;3.50;1.95;;;17.00;53.60;;;;;;4962924;28;20034;-68
2023/05/09 08:58:02;;;;;;;4.82;2.00;;;17.50;52.60;;;;;;4967785;28;20030;-68
2023/05/09 09:00:29;;;;;;;3.55;2.08;;;17.80;49.30;;;;;;4962753;28;20130;-68
2023/05/09 09:03:00;;;;;;;5.40;2.60;;;18.10;50.70;;;;;;4966438;28;20051;-68
2023/05/09 09:05:28;;;;;;;2.35;1.90;;;18.40;49.20;;;;;;4963479;28;20030;-68
2023/05/09 09:07:56;;;;;;;3.05;2.08;;;18.30;49.60;;;;;;4968152;28;20038;-68
2023/05/09 09:10:25;;;;;;;6.20;2.20;;;18.30;48.80;;;;;;4961257;28;20503;-69
2023/05/09 09:12:53;;;;;;;2.70;2.00;;;18.40;48.20;;;;;;4969838;28;20120;-67
2023/05/09 09:15:21;;;;;;;5.85;2.35;;;18.60;49.60;;;;;;4965427;28;20121;-69
2023/05/09 09:17:49;;;;;;;2.35;1.77;;;19.00;48.50;;;;;;4966773;28;20066;-68
2023/05/09 09:20:17;;;;;;;1.83;1.50;;;18.90;46.70;;;;;;4961387;28;20122;-68
2023/05/09 09:22:46;;;;;;;4.50;1.77;;;18.80;46.50;;;;;;4963302;28;20042;-67
2023/05/09 09:25:12;;;;;;;4.32;1.40;;;18.80;45.00;;;;;;4966046;28;20035;-64
2023/05/09 09:27:38;;;;;;;2.72;1.70;;;18.70;45.70;;;;;;4965260;28;20594;-66
2023/05/09 09:30:09;;;;;;;3.45;1.65;;;18.80;46.30;;;;;;4969260;28;20065;-66
2023/05/09 09:32:36;;;;;;;4.07;1.83;;;19.20;45.40;;;;;;4962548;28;20074;-66
2023/05/09 09:35:11;;;;;;;2.70;1.60;;;19.40;44.70;;;;;;4962949;28;20062;-68
2023/05/09 09:37:39;;;;;;;7.65;2.00;;;19.70;44.30;;;;;;4964769;28;20039;-67
2023/05/09 09:40:10;;;;;;;2.22;1.30;;;19.80;44.30;;;;;;4963188;28;20142;-67
2023/05/09 09:42:44;;;;;;;3.28;1.73;;;19.90;43.70;;;;;;4968984;28;20026;-68
2023/05/09 09:45:15;;;;;;;2.53;1.83;;;19.90;42.90;;;;;;4958064;28;20027;-67
2023/05/09 09:47:45;;;;;;;1.63;1.40;;;19.90;44.10;;;;;;4963538;28;20042;-66
2023/05/09 09:50:13;;;;;;;5.13;1.80;;;20.00;43.50;;;;;;4967634;28;20080;-66
2023/05/09 09:52:54;;;;;;;4.38;1.63;;;20.10;43.70;;;;;;4966412;28;20906;-66
2023/05/09 09:55:21;;;;;;;2.05;1.33;;;20.40;42.80;;;;;;4965643;28;20029;-67
2023/05/09 09:57:47;;;;;;;1.88;1.63;;;20.50;42.40;;;;;;4963506;28;20471;-66
2023/05/09 10:00:15;;;;;;;3.58;1.73;;;20.60;45.40;;;;;;4966952;28;20030;-66
2023/05/09 10:02:52;;;;;;;6.68;1.55;;;20.60;40.70;;;;;;4947803;28;20085;-66
2023/05/09 10:05:22;;;;;;;3.08;1.63;;;20.60;40.90;;;;;;4970116;28;20118;-66
2023/05/09 10:07:55;;;;;;;3.45;1.60;;;20.40;41.30;;;;;;4965054;28;20439;-66
2023/05/09 10:10:21;;;;;;;4.05;1.65;;;20.60;41.50;;;;;;4968227;28;20834;-66
2023/05/09 10:12:49;;;;;;;2.33;1.70;;;20.60;41.50;;;;;;4966098;28;20082;-66
2023/05/09 10:15:19;;;;;;;2.78;1.83;;;20.30;41.20;;;;;;4967769;28;20403;-65
2023/05/09 10:17:45;;;;;;;2.15;1.48;;;20.30;42.20;;;;;;4963198;28;20034;-65
2023/05/09 10:20:12;;;;;;;3.60;1.60;;;20.50;42.70;;;;;;4969592;28;20037;-66
2023/05/09 10:22:39;;;;;;;2.25;2.00;;;20.60;41.90;;;;;;4972156;28;20070;-65
2023/05/09 10:25:12;;;;;;;3.85;1.67;;;20.50;41.50;;;;;;4952527;28;20049;-65
2023/05/09 10:27:43;;;;;;;6.20;2.53;;;20.30;40.90;;;;;;4966366;28;20045;-66
2023/05/09 10:30:25;;;;;;;4.28;1.77;;;20.70;42.10;;;;;;4950036;28;20077;-65
2023/05/09 10:32:53;;;;;;;3.30;1.67;;;20.80;41.80;;;;;;4968472;28;20070;-65
2023/05/09 10:35:25;;;;;;;1.67;1.45;;;20.80;39.90;;;;;;4973674;28;20037;-65
2023/05/09 10:37:54;;;;;;;2.72;1.73;;;21.10;40.80;;;;;;4968376;28;20031;-65
2023/05/09 10:40:20;;;;;;;5.18;1.85;;;21.50;39.70;;;;;;4966888;28;20027;-65
2023/05/09 10:42:46;;;;;;;2.38;1.45;;;21.10;40.00;;;;;;4963819;28;20039;-65
2023/05/09 10:45:12;;;;;;;2.85;1.90;;;20.80;40.80;;;;;;4968823;28;20041;-64
2023/05/09 10:47:40;;;;;;;6.85;1.92;;;20.90;40.80;;;;;;4968983;28;20018;-64
2023/05/09 10:50:13;;;;;;;2.05;1.65;;;21.10;41.80;;;;;;4964954;28;20060;-64
2023/05/09 10:53:07;;;;;;;3.60;1.45;;;21.30;41.60;;;;;;4950556;28;20046;-64
2023/05/09 10:55:54;;;;;;;2.20;1.50;;;21.30;40.10;;;;;;4965227;28;20050;-64
2023/05/09 10:58:20;;;;;;;4.15;1.60;;;21.00;40.40;;;;;;4969523;28;20108;-65
2023/05/09 11:00:51;;;;;;;1.88;1.58;;;20.80;41.70;;;;;;4968494;28;20038;-65
2023/05/09 11:03:20;;;;;;;5.65;1.73;;;20.60;41.40;;;;;;4967774;28;20035;-65
2023/05/09 11:05:47;;;;;;;2.67;1.90;;;20.10;41.20;;;;;;4967686;28;20108;-68
2023/05/09 11:08:26;;;;;;;4.97;2.00;;;19.80;43.20;;;;;;4951448;28;20039;-65
2023/05/09 11:10:56;;;;;;;3.65;1.55;;;19.80;42.50;;;;;;4945388;28;20041;-65
2023/05/09 11:13:24;;;;;;;3.92;1.75;;;19.80;44.00;;;;;;4969133;28;20042;-65
2023/05/09 11:15:59;;;;;;;3.25;1.92;;;19.80;40.80;;;;;;4971372;28;20041;-70
2023/05/09 11:18:26;;;;;;;2.57;1.57;;;19.80;41.70;;;;;;4964165;28;20072;-64
2023/05/09 11:20:51;;;;;;;2.47;1.70;;;19.80;41.90;;;;;;4967020;28;20296;-65
2023/05/09 11:23:24;;;;;;;2.25;1.77;;;19.80;42.70;;;;;;4968321;28;20034;-64
2023/05/09 11:25:50;;;;;;;5.85;1.65;;;19.90;42.50;;;;;;4960538;28;20058;-64
2023/05/09 11:28:27;;;;;;;3.67;1.50;;;19.80;41.70;;;;;;4965568;28;20046;-65
2023/05/09 11:31:07;;;;;;;4.63;1.58;;;19.70;41.90;;;;;;4969373;28;20026;-65
2023/05/09 11:33:35;;;;;;;4.10;1.85;;;19.70;41.20;;;;;;4968687;28;20109;-64
2023/05/09 11:36:28;;;;;;;2.67;2.00;;;19.70;41.90;;;;;;4966413;28;20454;-66
2023/05/09 11:39:08;;;;;;;2.22;1.67;;;19.50;41.10;;;;;;4960619;28;20046;-65
2023/05/09 11:41:42;;;;;;;4.30;2.10;;;19.20;41.80;;;;;;4968484;28;20081;-66
2023/05/09 11:44:19;;;;;;;2.50;2.28;;;19.10;42.40;;;;;;4969705;28;20041;-66
2023/05/09 11:46:46;;;;;;;3.53;1.70;;;19.20;42.60;;;;;;4970424;28;20047;-66
2023/05/09 11:49:13;;;;;;;2.35;1.55;;;19.30;43.40;;;;;;4971158;28;20129;-67
2023/05/09 11:51:40;;;;;;;3.30;1.80;;;19.30;43.60;;;;;;4967103;28;20039;-66
2023/05/09 11:54:07;;;;;;;4.47;1.83;;;19.40;43.90;;;;;;4968281;28;21808;-66
2023/05/09 11:56:39;;;;;;;6.32;1.95;;;19.60;44.10;;;;;;4977908;28;20046;-65
2023/05/09 11:59:06;;;;;;;6.70;1.85;;;19.70;42.60;;;;;;4970837;28;20034;-65
2023/05/09 12:01:32;;;;;;;3.95;1.70;;;19.50;42.10;;;;;;4970147;28;20035;-65
2023/05/09 12:03:58;;;;;;;3.60;1.70;;;19.50;41.50;;;;;;4968788;28;20035;-67
2023/05/09 12:06:28;;;;;;;4.05;1.58;;;19.40;42.10;;;;;;4966262;28;20023;-65
2023/05/09 12:08:58;;;;;;;2.38;1.95;;;19.40;41.00;;;;;;4969287;28;20129;-66
2023/05/09 12:11:24;;;;;;;3.85;1.60;;;19.40;42.30;;;;;;4968760;28;20039;-66
2023/05/09 12:13:51;;;;;;;4.35;1.45;;;19.50;41.80;;;;;;4972831;28;20406;-67
2023/05/09 12:16:18;;;;;;;3.80;1.70;;;19.50;41.30;;;;;;4964315;28;20035;-66
2023/05/09 12:18:50;;;;;;;4.93;1.50;;;19.60;41.80;;;;;;4967300;28;20229;-67
2023/05/09 12:21:20;;;;;;;3.60;1.60;;;19.70;42.60;;;;;;4969434;28;20043;-67
2023/05/09 12:23:46;;;;;;;2.65;1.90;;;19.80;42.30;;;;;;4971260;28;20042;-67
2023/05/09 12:26:12;;;;;;;2.83;1.38;;;19.80;41.10;;;;;;4970784;28;20481;-66
2023/05/09 12:28:38;;;;;;;2.38;1.98;;;20.00;41.90;;;;;;4970434;28;20041;-67
2023/05/09 12:31:05;;;;;;;3.22;1.80;;;20.10;41.10;;;;;;4967204;28;20165;-64
2023/05/09 12:33:31;;;;;;;2.70;1.85;;;20.10;43.40;;;;;;4952055;28;20022;-63
2023/05/09 12:36:09;;;;;;;4.78;1.90;;;20.00;41.10;;;;;;4968992;28;20034;-63
2023/05/09 12:38:36;;;;;;;3.42;1.95;;;20.00;41.40;;;;;;4967095;28;20033;-62
2023/05/09 12:41:04;;;;;;;6.13;1.83;;;20.00;40.70;;;;;;4971313;28;20035;-64
2023/05/09 12:43:31;;;;;;;3.35;3.05;;;20.00;41.20;;;;;;4950588;28;20022;-65
2023/05/09 12:45:58;;;;;;;2.95;2.42;;;20.00;40.90;;;;;;4967096;28;20450;-63
2023/05/09 12:48:24;;;;;;;3.65;1.90;;;19.80;41.90;;;;;;4963974;28;20023;-63
2023/05/09 12:50:50;;;;;;;4.43;1.90;;;19.60;41.50;;;;;;4970118;28;20049;-62
2023/05/09 12:53:31;;;;;;;3.55;1.58;;;19.60;42.70;;;;;;4972169;28;20030;-65